Orbital elements of FENGYUN 1C DEB
| Launched | 9 May 1999 |
| Flight ended | – |
| Launch site | Taiyuan Space Center, PRC |
| Owner | People's Republic of China |
| NORAD ID | 30691 |
| Date fetched |
Epoch osculation |
Inc. [°] |
Ecc. | RA asc node [hr] |
Arg Peri. [°] |
Mean anom [°] |
Mean motion [rev/day] |
Abs. mag |
| Date fetched |
Epoch osculation |
Inc. [°] |
Ecc. | RA asc node [hr] |
Arg Peri. [°] |
Mean anom [°] |
Mean motion [rev/day] |
Abs. mag |
| 2026 May 05 17:57 | 2026 May 04 13:49:11 | 98.7402 | 0.01386 | 8.8253 | 201.4479 | 280.4428 | 13.89864 | – |
| 2026 May 04 17:57 | 2026 Apr 30 11:30:20 | 98.7403 | 0.01383 | 8.5686 | 212.7480 | 280.4428 | 13.89864 | – |
| 2026 May 03 17:57 | 2026 Apr 30 11:30:20 | 98.7403 | 0.01383 | 8.5686 | 212.7480 | 280.4428 | 13.89864 | – |
| 2026 May 02 17:57 | 2026 Apr 30 11:30:20 | 98.7403 | 0.01383 | 8.5686 | 212.7480 | 280.4428 | 13.89864 | – |
| 2026 May 01 17:56 | 2026 Apr 30 11:30:20 | 98.7403 | 0.01383 | 8.5686 | 212.7480 | 280.4428 | 13.89864 | – |
| 2026 Apr 30 17:56 | 2026 Apr 30 11:30:20 | 98.7403 | 0.01383 | 8.5686 | 212.7480 | 280.4428 | 13.89864 | – |
| 2026 Apr 29 17:57 | 2026 Apr 23 23:31:29 | 98.7409 | 0.01379 | 8.1613 | 230.6808 | 280.4428 | 13.89864 | – |
| 2026 Apr 28 17:56 | 2026 Apr 23 23:31:29 | 98.7409 | 0.01379 | 8.1613 | 230.6808 | 280.4428 | 13.89864 | – |
| 2026 Apr 27 17:58 | 2026 Apr 23 23:31:29 | 98.7409 | 0.01379 | 8.1613 | 230.6808 | 280.4428 | 13.89864 | – |
| 2026 Apr 26 17:58 | 2026 Apr 23 23:31:29 | 98.7409 | 0.01379 | 8.1613 | 230.6808 | 280.4428 | 13.89864 | – |
| 2026 Apr 25 17:58 | 2026 Apr 23 23:31:29 | 98.7409 | 0.01379 | 8.1613 | 230.6808 | 280.4428 | 13.89864 | – |
| 2026 Apr 24 17:59 | 2026 Apr 23 23:31:29 | 98.7409 | 0.01379 | 8.1613 | 230.6808 | 280.4428 | 13.89864 | – |
| 2026 Apr 23 17:57 | 2026 Apr 18 00:07:22 | 98.7414 | 0.01377 | 7.7867 | 247.2120 | 280.4428 | 13.89864 | – |
| 2026 Apr 22 17:57 | 2026 Apr 18 00:07:22 | 98.7414 | 0.01377 | 7.7867 | 247.2120 | 280.4428 | 13.89864 | – |
| 2026 Apr 21 17:57 | 2026 Apr 18 00:07:22 | 98.7414 | 0.01377 | 7.7867 | 247.2120 | 280.4428 | 13.89864 | – |
| 2026 Apr 20 17:57 | 2026 Apr 18 00:07:22 | 98.7414 | 0.01377 | 7.7867 | 247.2120 | 280.4428 | 13.89864 | – |
| 2026 Apr 19 17:58 | 2026 Apr 18 00:07:22 | 98.7414 | 0.01377 | 7.7867 | 247.2120 | 280.4428 | 13.89864 | – |
| 2026 Apr 18 17:56 | 2026 Apr 10 22:49:38 | 98.7421 | 0.01375 | 7.3446 | 266.7484 | 280.4428 | 13.89864 | – |
| 2026 Apr 16 17:57 | 2026 Apr 10 22:49:38 | 98.7421 | 0.01375 | 7.3446 | 266.7484 | 280.4428 | 13.89864 | – |
| 2026 Apr 14 17:57 | 2026 Apr 10 22:49:38 | 98.7421 | 0.01375 | 7.3446 | 266.7484 | 280.4428 | 13.89864 | – |
| 2026 Apr 13 17:57 | 2026 Apr 10 22:49:38 | 98.7421 | 0.01375 | 7.3446 | 266.7484 | 280.4428 | 13.89864 | – |
| 2026 Apr 12 17:57 | 2026 Apr 08 14:07:14 | 98.7421 | 0.01375 | 7.1965 | 273.3074 | 280.4428 | 13.89864 | – |
| 2026 Apr 11 17:57 | 2026 Apr 08 14:07:14 | 98.7421 | 0.01375 | 7.1965 | 273.3074 | 280.4428 | 13.89864 | – |
| 2026 Apr 10 17:58 | 2026 Apr 08 14:07:14 | 98.7421 | 0.01375 | 7.1965 | 273.3074 | 280.4428 | 13.89864 | – |
| 2026 Apr 09 18:01 | 2026 Apr 08 14:07:14 | 98.7421 | 0.01375 | 7.1965 | 273.3074 | 280.4428 | 13.89864 | – |
| 2026 Apr 08 17:57 | 2026 Apr 08 14:07:14 | 98.7421 | 0.01375 | 7.1965 | 273.3074 | 280.4428 | 13.89864 | – |